<?xml version="1.0" encoding="UTF-8" standalone="no" ?>
<gpx xmlns="http://www.topografix.com/GPX/1/1" xmlns:xsi="http://www.w3.org/2001/XMLSchema-instance" xsi:schemaLocation="http://www.topografix.com/GPX/1/1 http://www.topografix.com/GPX/1/1/gpx.xsd" version="1.1" creator="VisuGPX - https://www.visugpx.com">
  <metadata>
    <name>13716130-de roquebrune à fréjus</name>
  </metadata>
  <trk>
    <name><![CDATA[13716130-de roquebrune à fréjus]]></name>
    <trkseg>
      <trkpt lat="43.3409" lon="6.68029">
        <ele>4</ele>
        <time>2021-09-18T09:16:24Z</time>
      </trkpt>
      <trkpt lat="43.34125" lon="6.68081">
        <ele>4</ele>
        <time>2021-09-18T09:16:36Z</time>
      </trkpt>
      <trkpt lat="43.34155" lon="6.68151">
        <ele>5</ele>
        <time>2021-09-18T09:16:50Z</time>
      </trkpt>
      <trkpt lat="43.34159" lon="6.68213">
        <ele>5</ele>
        <time>2021-09-18T09:17:00Z</time>
      </trkpt>
      <trkpt lat="43.34153" lon="6.68264">
        <ele>6</ele>
        <time>2021-09-18T09:17:09Z</time>
      </trkpt>
      <trkpt lat="43.34166" lon="6.68282">
        <ele>7</ele>
        <time>2021-09-18T09:17:13Z</time>
      </trkpt>
      <trkpt lat="43.34205" lon="6.68311">
        <ele>11</ele>
        <time>2021-09-18T09:17:24Z</time>
      </trkpt>
      <trkpt lat="43.34261" lon="6.6836">
        <ele>16</ele>
        <time>2021-09-18T09:17:39Z</time>
      </trkpt>
      <trkpt lat="43.34279" lon="6.68332">
        <ele>17</ele>
        <time>2021-09-18T09:17:46Z</time>
      </trkpt>
      <trkpt lat="43.34288" lon="6.6834">
        <ele>18</ele>
        <time>2021-09-18T09:17:48Z</time>
      </trkpt>
      <trkpt lat="43.34309" lon="6.68324">
        <ele>18</ele>
        <time>2021-09-18T09:17:54Z</time>
      </trkpt>
      <trkpt lat="43.34343" lon="6.68315">
        <ele>19</ele>
        <time>2021-09-18T09:18:02Z</time>
      </trkpt>
      <trkpt lat="43.3442" lon="6.6834">
        <ele>25</ele>
        <time>2021-09-18T09:18:20Z</time>
      </trkpt>
      <trkpt lat="43.34491" lon="6.68341">
        <ele>28</ele>
        <time>2021-09-18T09:18:37Z</time>
      </trkpt>
      <trkpt lat="43.34623" lon="6.68277">
        <ele>31</ele>
        <time>2021-09-18T09:19:10Z</time>
      </trkpt>
      <trkpt lat="43.34716" lon="6.68246">
        <ele>39</ele>
        <time>2021-09-18T09:19:32Z</time>
      </trkpt>
      <trkpt lat="43.34704" lon="6.68277">
        <ele>39</ele>
        <time>2021-09-18T09:19:38Z</time>
      </trkpt>
      <trkpt lat="43.34701" lon="6.68313">
        <ele>41</ele>
        <time>2021-09-18T09:19:44Z</time>
      </trkpt>
      <trkpt lat="43.34715" lon="6.68359">
        <ele>46</ele>
        <time>2021-09-18T09:19:53Z</time>
      </trkpt>
      <trkpt lat="43.34743" lon="6.6839">
        <ele>50</ele>
        <time>2021-09-18T09:20:01Z</time>
      </trkpt>
      <trkpt lat="43.3477" lon="6.68409">
        <ele>54</ele>
        <time>2021-09-18T09:20:08Z</time>
      </trkpt>
      <trkpt lat="43.34807" lon="6.68463">
        <ele>61</ele>
        <time>2021-09-18T09:20:21Z</time>
      </trkpt>
      <trkpt lat="43.34822" lon="6.68453">
        <ele>63</ele>
        <time>2021-09-18T09:20:25Z</time>
      </trkpt>
      <trkpt lat="43.34825" lon="6.68429">
        <ele>62</ele>
        <time>2021-09-18T09:20:29Z</time>
      </trkpt>
      <trkpt lat="43.34865" lon="6.68391">
        <ele>66</ele>
        <time>2021-09-18T09:20:40Z</time>
      </trkpt>
      <trkpt lat="43.34925" lon="6.68383">
        <ele>75</ele>
        <time>2021-09-18T09:20:54Z</time>
      </trkpt>
      <trkpt lat="43.34958" lon="6.68319">
        <ele>74</ele>
        <time>2021-09-18T09:21:07Z</time>
      </trkpt>
      <trkpt lat="43.34997" lon="6.68305">
        <ele>80</ele>
        <time>2021-09-18T09:21:17Z</time>
      </trkpt>
      <trkpt lat="43.35034" lon="6.68312">
        <ele>81</ele>
        <time>2021-09-18T09:21:26Z</time>
      </trkpt>
      <trkpt lat="43.35079" lon="6.6835">
        <ele>87</ele>
        <time>2021-09-18T09:21:38Z</time>
      </trkpt>
      <trkpt lat="43.35141" lon="6.68408">
        <ele>92</ele>
        <time>2021-09-18T09:21:55Z</time>
      </trkpt>
      <trkpt lat="43.35196" lon="6.6842">
        <ele>94</ele>
        <time>2021-09-18T09:22:08Z</time>
      </trkpt>
      <trkpt lat="43.35226" lon="6.68416">
        <ele>96</ele>
        <time>2021-09-18T09:22:15Z</time>
      </trkpt>
      <trkpt lat="43.35256" lon="6.68401">
        <ele>97</ele>
        <time>2021-09-18T09:22:23Z</time>
      </trkpt>
      <trkpt lat="43.35294" lon="6.6837">
        <ele>97</ele>
        <time>2021-09-18T09:22:33Z</time>
      </trkpt>
      <trkpt lat="43.35372" lon="6.683">
        <ele>102</ele>
        <time>2021-09-18T09:22:55Z</time>
      </trkpt>
      <trkpt lat="43.35425" lon="6.6828">
        <ele>105</ele>
        <time>2021-09-18T09:23:08Z</time>
      </trkpt>
      <trkpt lat="43.35461" lon="6.68242">
        <ele>110</ele>
        <time>2021-09-18T09:23:18Z</time>
      </trkpt>
      <trkpt lat="43.35486" lon="6.68256">
        <ele>112</ele>
        <time>2021-09-18T09:23:25Z</time>
      </trkpt>
      <trkpt lat="43.35505" lon="6.68291">
        <ele>110</ele>
        <time>2021-09-18T09:23:32Z</time>
      </trkpt>
      <trkpt lat="43.35553" lon="6.68329">
        <ele>112</ele>
        <time>2021-09-18T09:23:45Z</time>
      </trkpt>
      <trkpt lat="43.35604" lon="6.68338">
        <ele>114</ele>
        <time>2021-09-18T09:23:57Z</time>
      </trkpt>
      <trkpt lat="43.35647" lon="6.68331">
        <ele>116</ele>
        <time>2021-09-18T09:24:07Z</time>
      </trkpt>
      <trkpt lat="43.35688" lon="6.68312">
        <ele>118</ele>
        <time>2021-09-18T09:24:17Z</time>
      </trkpt>
      <trkpt lat="43.35718" lon="6.68254">
        <ele>126</ele>
        <time>2021-09-18T09:24:29Z</time>
      </trkpt>
      <trkpt lat="43.35738" lon="6.68249">
        <ele>127</ele>
        <time>2021-09-18T09:24:34Z</time>
      </trkpt>
      <trkpt lat="43.3574" lon="6.68223">
        <ele>127</ele>
        <time>2021-09-18T09:24:39Z</time>
      </trkpt>
      <trkpt lat="43.35778" lon="6.68207">
        <ele>129</ele>
        <time>2021-09-18T09:24:48Z</time>
      </trkpt>
      <trkpt lat="43.35816" lon="6.68178">
        <ele>135</ele>
        <time>2021-09-18T09:24:58Z</time>
      </trkpt>
      <trkpt lat="43.35904" lon="6.68167">
        <ele>147</ele>
        <time>2021-09-18T09:25:19Z</time>
      </trkpt>
      <trkpt lat="43.35918" lon="6.68176">
        <ele>147</ele>
        <time>2021-09-18T09:25:22Z</time>
      </trkpt>
      <trkpt lat="43.3594" lon="6.68174">
        <ele>146</ele>
        <time>2021-09-18T09:25:27Z</time>
      </trkpt>
      <trkpt lat="43.35992" lon="6.68097">
        <ele>154</ele>
        <time>2021-09-18T09:25:45Z</time>
      </trkpt>
      <trkpt lat="43.3605" lon="6.68064">
        <ele>161</ele>
        <time>2021-09-18T09:26:00Z</time>
      </trkpt>
      <trkpt lat="43.36057" lon="6.67993">
        <ele>162</ele>
        <time>2021-09-18T09:26:12Z</time>
      </trkpt>
      <trkpt lat="43.36077" lon="6.6796">
        <ele>160</ele>
        <time>2021-09-18T09:26:19Z</time>
      </trkpt>
      <trkpt lat="43.36118" lon="6.67948">
        <ele>160</ele>
        <time>2021-09-18T09:26:29Z</time>
      </trkpt>
      <trkpt lat="43.3622" lon="6.67934">
        <ele>164</ele>
        <time>2021-09-18T09:26:53Z</time>
      </trkpt>
      <trkpt lat="43.36259" lon="6.67868">
        <ele>166</ele>
        <time>2021-09-18T09:27:08Z</time>
      </trkpt>
      <trkpt lat="43.36252" lon="6.67841">
        <ele>163</ele>
        <time>2021-09-18T09:27:12Z</time>
      </trkpt>
      <trkpt lat="43.36218" lon="6.67786">
        <ele>158</ele>
        <time>2021-09-18T09:27:25Z</time>
      </trkpt>
      <trkpt lat="43.36205" lon="6.67737">
        <ele>156</ele>
        <time>2021-09-18T09:27:33Z</time>
      </trkpt>
      <trkpt lat="43.36227" lon="6.67684">
        <ele>160</ele>
        <time>2021-09-18T09:27:44Z</time>
      </trkpt>
      <trkpt lat="43.36264" lon="6.67666">
        <ele>170</ele>
        <time>2021-09-18T09:27:53Z</time>
      </trkpt>
      <trkpt lat="43.36269" lon="6.67645">
        <ele>168</ele>
        <time>2021-09-18T09:27:57Z</time>
      </trkpt>
      <trkpt lat="43.3626" lon="6.67577">
        <ele>153</ele>
        <time>2021-09-18T09:28:08Z</time>
      </trkpt>
      <trkpt lat="43.36282" lon="6.67525">
        <ele>152</ele>
        <time>2021-09-18T09:28:19Z</time>
      </trkpt>
      <trkpt lat="43.36319" lon="6.67496">
        <ele>158</ele>
        <time>2021-09-18T09:28:29Z</time>
      </trkpt>
      <trkpt lat="43.36326" lon="6.67473">
        <ele>159</ele>
        <time>2021-09-18T09:28:33Z</time>
      </trkpt>
      <trkpt lat="43.36318" lon="6.6744">
        <ele>156</ele>
        <time>2021-09-18T09:28:39Z</time>
      </trkpt>
      <trkpt lat="43.36277" lon="6.67415">
        <ele>149</ele>
        <time>2021-09-18T09:28:49Z</time>
      </trkpt>
      <trkpt lat="43.3623" lon="6.67413">
        <ele>144</ele>
        <time>2021-09-18T09:29:00Z</time>
      </trkpt>
      <trkpt lat="43.36106" lon="6.67399">
        <ele>139</ele>
        <time>2021-09-18T09:29:29Z</time>
      </trkpt>
      <trkpt lat="43.3611" lon="6.67337">
        <ele>141</ele>
        <time>2021-09-18T09:29:40Z</time>
      </trkpt>
      <trkpt lat="43.36331" lon="6.67336">
        <ele>157</ele>
        <time>2021-09-18T09:30:31Z</time>
      </trkpt>
      <trkpt lat="43.36409" lon="6.67318">
        <ele>156</ele>
        <time>2021-09-18T09:30:50Z</time>
      </trkpt>
      <trkpt lat="43.36424" lon="6.67282">
        <ele>158</ele>
        <time>2021-09-18T09:30:57Z</time>
      </trkpt>
      <trkpt lat="43.36495" lon="6.6728">
        <ele>146</ele>
        <time>2021-09-18T09:31:14Z</time>
      </trkpt>
      <trkpt lat="43.3653" lon="6.67302">
        <ele>137</ele>
        <time>2021-09-18T09:31:23Z</time>
      </trkpt>
      <trkpt lat="43.366" lon="6.67298">
        <ele>123</ele>
        <time>2021-09-18T09:31:39Z</time>
      </trkpt>
      <trkpt lat="43.36655" lon="6.67288">
        <ele>113</ele>
        <time>2021-09-18T09:31:52Z</time>
      </trkpt>
      <trkpt lat="43.36748" lon="6.67282">
        <ele>103</ele>
        <time>2021-09-18T09:32:14Z</time>
      </trkpt>
      <trkpt lat="43.36796" lon="6.67224">
        <ele>99</ele>
        <time>2021-09-18T09:32:29Z</time>
      </trkpt>
      <trkpt lat="43.36894" lon="6.67178">
        <ele>96</ele>
        <time>2021-09-18T09:32:53Z</time>
      </trkpt>
      <trkpt lat="43.36971" lon="6.67151">
        <ele>99</ele>
        <time>2021-09-18T09:33:11Z</time>
      </trkpt>
      <trkpt lat="43.37045" lon="6.67237">
        <ele>91</ele>
        <time>2021-09-18T09:33:34Z</time>
      </trkpt>
      <trkpt lat="43.37116" lon="6.67262">
        <ele>87</ele>
        <time>2021-09-18T09:33:51Z</time>
      </trkpt>
      <trkpt lat="43.37157" lon="6.67255">
        <ele>85</ele>
        <time>2021-09-18T09:34:01Z</time>
      </trkpt>
      <trkpt lat="43.37256" lon="6.67284">
        <ele>81</ele>
        <time>2021-09-18T09:34:24Z</time>
      </trkpt>
      <trkpt lat="43.37291" lon="6.6732">
        <ele>77</ele>
        <time>2021-09-18T09:34:35Z</time>
      </trkpt>
      <trkpt lat="43.37358" lon="6.67322">
        <ele>76</ele>
        <time>2021-09-18T09:34:50Z</time>
      </trkpt>
      <trkpt lat="43.37519" lon="6.67386">
        <ele>75</ele>
        <time>2021-09-18T09:35:29Z</time>
      </trkpt>
      <trkpt lat="43.3776" lon="6.67498">
        <ele>63</ele>
        <time>2021-09-18T09:36:29Z</time>
      </trkpt>
      <trkpt lat="43.37835" lon="6.67489">
        <ele>63</ele>
        <time>2021-09-18T09:36:46Z</time>
      </trkpt>
      <trkpt lat="43.37962" lon="6.67449">
        <ele>61</ele>
        <time>2021-09-18T09:37:17Z</time>
      </trkpt>
      <trkpt lat="43.3802" lon="6.67459">
        <ele>58</ele>
        <time>2021-09-18T09:37:30Z</time>
      </trkpt>
      <trkpt lat="43.38148" lon="6.67531">
        <ele>58</ele>
        <time>2021-09-18T09:38:03Z</time>
      </trkpt>
      <trkpt lat="43.38258" lon="6.67607">
        <ele>54</ele>
        <time>2021-09-18T09:38:31Z</time>
      </trkpt>
      <trkpt lat="43.38381" lon="6.67592">
        <ele>53</ele>
        <time>2021-09-18T09:39:00Z</time>
      </trkpt>
      <trkpt lat="43.38465" lon="6.67625">
        <ele>49</ele>
        <time>2021-09-18T09:39:21Z</time>
      </trkpt>
      <trkpt lat="43.38558" lon="6.6761">
        <ele>44</ele>
        <time>2021-09-18T09:39:43Z</time>
      </trkpt>
      <trkpt lat="43.38684" lon="6.67638">
        <ele>43</ele>
        <time>2021-09-18T09:40:12Z</time>
      </trkpt>
      <trkpt lat="43.38774" lon="6.67689">
        <ele>38</ele>
        <time>2021-09-18T09:40:35Z</time>
      </trkpt>
      <trkpt lat="43.38882" lon="6.67647">
        <ele>31</ele>
        <time>2021-09-18T09:41:01Z</time>
      </trkpt>
      <trkpt lat="43.39001" lon="6.67678">
        <ele>24</ele>
        <time>2021-09-18T09:41:30Z</time>
      </trkpt>
      <trkpt lat="43.3904" lon="6.67674">
        <ele>23</ele>
        <time>2021-09-18T09:41:39Z</time>
      </trkpt>
      <trkpt lat="43.39049" lon="6.67698">
        <ele>25</ele>
        <time>2021-09-18T09:41:43Z</time>
      </trkpt>
      <trkpt lat="43.39126" lon="6.67656">
        <ele>23</ele>
        <time>2021-09-18T09:42:03Z</time>
      </trkpt>
      <trkpt lat="43.39177" lon="6.67658">
        <ele>22</ele>
        <time>2021-09-18T09:42:15Z</time>
      </trkpt>
      <trkpt lat="43.39215" lon="6.67646">
        <ele>23</ele>
        <time>2021-09-18T09:42:24Z</time>
      </trkpt>
      <trkpt lat="43.39217" lon="6.67626">
        <ele>26</ele>
        <time>2021-09-18T09:42:27Z</time>
      </trkpt>
      <trkpt lat="43.39322" lon="6.67612">
        <ele>26</ele>
        <time>2021-09-18T09:42:52Z</time>
      </trkpt>
      <trkpt lat="43.39405" lon="6.67576">
        <ele>22</ele>
        <time>2021-09-18T09:43:12Z</time>
      </trkpt>
      <trkpt lat="43.39442" lon="6.67584">
        <ele>20</ele>
        <time>2021-09-18T09:43:21Z</time>
      </trkpt>
      <trkpt lat="43.39497" lon="6.67552">
        <ele>21</ele>
        <time>2021-09-18T09:43:35Z</time>
      </trkpt>
      <trkpt lat="43.39516" lon="6.67558">
        <ele>20</ele>
        <time>2021-09-18T09:43:39Z</time>
      </trkpt>
      <trkpt lat="43.39529" lon="6.67524">
        <ele>20</ele>
        <time>2021-09-18T09:43:46Z</time>
      </trkpt>
      <trkpt lat="43.39671" lon="6.67476">
        <ele>14</ele>
        <time>2021-09-18T09:44:20Z</time>
      </trkpt>
      <trkpt lat="43.39683" lon="6.67448">
        <ele>14</ele>
        <time>2021-09-18T09:44:25Z</time>
      </trkpt>
      <trkpt lat="43.3981" lon="6.67548">
        <ele>15</ele>
        <time>2021-09-18T09:45:00Z</time>
      </trkpt>
      <trkpt lat="43.3991" lon="6.67636">
        <ele>14</ele>
        <time>2021-09-18T09:45:27Z</time>
      </trkpt>
      <trkpt lat="43.4006" lon="6.67778">
        <ele>14</ele>
        <time>2021-09-18T09:46:10Z</time>
      </trkpt>
      <trkpt lat="43.40183" lon="6.67922">
        <ele>13</ele>
        <time>2021-09-18T09:46:48Z</time>
      </trkpt>
      <trkpt lat="43.4033" lon="6.68066">
        <ele>11</ele>
        <time>2021-09-18T09:47:30Z</time>
      </trkpt>
      <trkpt lat="43.40374" lon="6.68156">
        <ele>15</ele>
        <time>2021-09-18T09:47:48Z</time>
      </trkpt>
      <trkpt lat="43.40407" lon="6.68307">
        <ele>14</ele>
        <time>2021-09-18T09:48:15Z</time>
      </trkpt>
      <trkpt lat="43.4045" lon="6.68455">
        <ele>10</ele>
        <time>2021-09-18T09:48:42Z</time>
      </trkpt>
      <trkpt lat="43.40503" lon="6.68511">
        <ele>8</ele>
        <time>2021-09-18T09:48:57Z</time>
      </trkpt>
      <trkpt lat="43.40714" lon="6.68603">
        <ele>9</ele>
        <time>2021-09-18T09:49:49Z</time>
      </trkpt>
      <trkpt lat="43.40813" lon="6.68641">
        <ele>9</ele>
        <time>2021-09-18T09:50:13Z</time>
      </trkpt>
      <trkpt lat="43.41103" lon="6.68665">
        <ele>9</ele>
        <time>2021-09-18T09:51:21Z</time>
      </trkpt>
      <trkpt lat="43.41191" lon="6.68747">
        <ele>6</ele>
        <time>2021-09-18T09:51:46Z</time>
      </trkpt>
      <trkpt lat="43.41266" lon="6.68731">
        <ele>7</ele>
        <time>2021-09-18T09:52:04Z</time>
      </trkpt>
      <trkpt lat="43.41284" lon="6.68745">
        <ele>7</ele>
        <time>2021-09-18T09:52:08Z</time>
      </trkpt>
      <trkpt lat="43.41311" lon="6.68923">
        <ele>6</ele>
        <time>2021-09-18T09:52:39Z</time>
      </trkpt>
      <trkpt lat="43.41235" lon="6.69296">
        <ele>7</ele>
        <time>2021-09-18T09:53:45Z</time>
      </trkpt>
      <trkpt lat="43.41216" lon="6.6957">
        <ele>4</ele>
        <time>2021-09-18T09:54:32Z</time>
      </trkpt>
      <trkpt lat="43.41213" lon="6.69684">
        <ele>7</ele>
        <time>2021-09-18T09:54:51Z</time>
      </trkpt>
      <trkpt lat="43.41263" lon="6.6991">
        <ele>17</ele>
        <time>2021-09-18T09:55:31Z</time>
      </trkpt>
      <trkpt lat="43.41312" lon="6.7011">
        <ele>11</ele>
        <time>2021-09-18T09:56:07Z</time>
      </trkpt>
      <trkpt lat="43.41299" lon="6.70128">
        <ele>15</ele>
        <time>2021-09-18T09:56:11Z</time>
      </trkpt>
      <trkpt lat="43.41305" lon="6.70155">
        <ele>14</ele>
        <time>2021-09-18T09:56:16Z</time>
      </trkpt>
      <trkpt lat="43.41324" lon="6.70159">
        <ele>9</ele>
        <time>2021-09-18T09:56:20Z</time>
      </trkpt>
      <trkpt lat="43.41334" lon="6.70127">
        <ele>5</ele>
        <time>2021-09-18T09:56:26Z</time>
      </trkpt>
      <trkpt lat="43.41407" lon="6.70134">
        <ele>4</ele>
        <time>2021-09-18T09:56:43Z</time>
      </trkpt>
      <trkpt lat="43.41476" lon="6.70137">
        <ele>4</ele>
        <time>2021-09-18T09:57:00Z</time>
      </trkpt>
      <trkpt lat="43.41516" lon="6.70163">
        <ele>3</ele>
        <time>2021-09-18T09:57:10Z</time>
      </trkpt>
      <trkpt lat="43.41683" lon="6.70361">
        <ele>3</ele>
        <time>2021-09-18T09:58:01Z</time>
      </trkpt>
      <trkpt lat="43.41711" lon="6.70343">
        <ele>4</ele>
        <time>2021-09-18T09:58:09Z</time>
      </trkpt>
      <trkpt lat="43.4177" lon="6.70259">
        <ele>4</ele>
        <time>2021-09-18T09:58:28Z</time>
      </trkpt>
      <trkpt lat="43.41898" lon="6.70327">
        <ele>3</ele>
        <time>2021-09-18T09:59:00Z</time>
      </trkpt>
      <trkpt lat="43.42103" lon="6.70443">
        <ele>4</ele>
        <time>2021-09-18T09:59:52Z</time>
      </trkpt>
      <trkpt lat="43.42208" lon="6.70515">
        <ele>3</ele>
        <time>2021-09-18T10:00:20Z</time>
      </trkpt>
      <trkpt lat="43.42254" lon="6.70591">
        <ele>4</ele>
        <time>2021-09-18T10:00:36Z</time>
      </trkpt>
      <trkpt lat="43.42295" lon="6.70749">
        <ele>4</ele>
        <time>2021-09-18T10:01:05Z</time>
      </trkpt>
      <trkpt lat="43.42339" lon="6.71112">
        <ele>2</ele>
        <time>2021-09-18T10:02:07Z</time>
      </trkpt>
      <trkpt lat="43.42377" lon="6.71222">
        <ele>2</ele>
        <time>2021-09-18T10:02:28Z</time>
      </trkpt>
      <trkpt lat="43.42496" lon="6.71384">
        <ele>3</ele>
        <time>2021-09-18T10:03:07Z</time>
      </trkpt>
      <trkpt lat="43.42601" lon="6.71532">
        <ele>4</ele>
        <time>2021-09-18T10:03:42Z</time>
      </trkpt>
      <trkpt lat="43.42686" lon="6.7169">
        <ele>4</ele>
        <time>2021-09-18T10:04:15Z</time>
      </trkpt>
      <trkpt lat="43.42739" lon="6.71774">
        <ele>4</ele>
        <time>2021-09-18T10:04:34Z</time>
      </trkpt>
      <trkpt lat="43.4292" lon="6.72041">
        <ele>5</ele>
        <time>2021-09-18T10:05:36Z</time>
      </trkpt>
      <trkpt lat="43.43057" lon="6.72123">
        <ele>5</ele>
        <time>2021-09-18T10:06:11Z</time>
      </trkpt>
      <trkpt lat="43.43141" lon="6.72177">
        <ele>6</ele>
        <time>2021-09-18T10:06:33Z</time>
      </trkpt>
      <trkpt lat="43.43298" lon="6.72205">
        <ele>5</ele>
        <time>2021-09-18T10:07:10Z</time>
      </trkpt>
      <trkpt lat="43.43367" lon="6.72189">
        <ele>5</ele>
        <time>2021-09-18T10:07:26Z</time>
      </trkpt>
      <trkpt lat="43.434" lon="6.72205">
        <ele>5</ele>
        <time>2021-09-18T10:07:34Z</time>
      </trkpt>
      <trkpt lat="43.43434" lon="6.72249">
        <ele>7</ele>
        <time>2021-09-18T10:07:45Z</time>
      </trkpt>
      <trkpt lat="43.43457" lon="6.72333">
        <ele>7</ele>
        <time>2021-09-18T10:08:00Z</time>
      </trkpt>
      <trkpt lat="43.43464" lon="6.72401">
        <ele>7</ele>
        <time>2021-09-18T10:08:12Z</time>
      </trkpt>
      <trkpt lat="43.4345" lon="6.72459">
        <ele>7</ele>
        <time>2021-09-18T10:08:22Z</time>
      </trkpt>
      <trkpt lat="43.43416" lon="6.72503">
        <ele>7</ele>
        <time>2021-09-18T10:08:33Z</time>
      </trkpt>
      <trkpt lat="43.43358" lon="6.72489">
        <ele>6</ele>
        <time>2021-09-18T10:08:47Z</time>
      </trkpt>
      <trkpt lat="43.43326" lon="6.72493">
        <ele>6</ele>
        <time>2021-09-18T10:08:55Z</time>
      </trkpt>
      <trkpt lat="43.4333" lon="6.72543">
        <ele>6</ele>
        <time>2021-09-18T10:09:03Z</time>
      </trkpt>
      <trkpt lat="43.43386" lon="6.72583">
        <ele>7</ele>
        <time>2021-09-18T10:09:18Z</time>
      </trkpt>
      <trkpt lat="43.43422" lon="6.72617">
        <ele>7</ele>
        <time>2021-09-18T10:09:28Z</time>
      </trkpt>
      <trkpt lat="43.43368" lon="6.72705">
        <ele>8</ele>
        <time>2021-09-18T10:09:48Z</time>
      </trkpt>
      <trkpt lat="43.43383" lon="6.72743">
        <ele>9</ele>
        <time>2021-09-18T10:09:55Z</time>
      </trkpt>
      <trkpt lat="43.43362" lon="6.72791">
        <ele>8</ele>
        <time>2021-09-18T10:10:04Z</time>
      </trkpt>
      <trkpt lat="43.43351" lon="6.72795">
        <ele>8</ele>
        <time>2021-09-18T10:10:07Z</time>
      </trkpt>
      <trkpt lat="43.43352" lon="6.72827">
        <ele>7</ele>
        <time>2021-09-18T10:10:13Z</time>
      </trkpt>
      <trkpt lat="43.43311" lon="6.72969">
        <ele>9</ele>
        <time>2021-09-18T10:10:38Z</time>
      </trkpt>
      <trkpt lat="43.43259" lon="6.73188">
        <ele>12</ele>
        <time>2021-09-18T10:11:17Z</time>
      </trkpt>
      <trkpt lat="43.43213" lon="6.73329">
        <ele>13</ele>
        <time>2021-09-18T10:11:44Z</time>
      </trkpt>
      <trkpt lat="43.43172" lon="6.73392">
        <ele>11</ele>
        <time>2021-09-18T10:11:58Z</time>
      </trkpt>
      <trkpt lat="43.4316" lon="6.73437">
        <ele>11</ele>
        <time>2021-09-18T10:12:06Z</time>
      </trkpt>
      <trkpt lat="43.43187" lon="6.73428">
        <ele>14</ele>
        <time>2021-09-18T10:12:13Z</time>
      </trkpt>
      <trkpt lat="43.43192" lon="6.73458">
        <ele>16</ele>
        <time>2021-09-18T10:12:18Z</time>
      </trkpt>
      <trkpt lat="43.43193" lon="6.73496">
        <ele>16</ele>
        <time>2021-09-18T10:12:24Z</time>
      </trkpt>
      <trkpt lat="43.43219" lon="6.73493">
        <ele>19</ele>
        <time>2021-09-18T10:12:30Z</time>
      </trkpt>
      <trkpt lat="43.43215" lon="6.7346">
        <ele>18</ele>
        <time>2021-09-18T10:12:36Z</time>
      </trkpt>
      <trkpt lat="43.43256" lon="6.73451">
        <ele>23</ele>
        <time>2021-09-18T10:12:46Z</time>
      </trkpt>
      <trkpt lat="43.4331" lon="6.73445">
        <ele>25</ele>
        <time>2021-09-18T10:12:58Z</time>
      </trkpt>
      <trkpt lat="43.43305" lon="6.73481">
        <ele>26</ele>
        <time>2021-09-18T10:13:05Z</time>
      </trkpt>
      <trkpt lat="43.43332" lon="6.7349">
        <ele>29</ele>
        <time>2021-09-18T10:13:11Z</time>
      </trkpt>
      <trkpt lat="43.43319" lon="6.73534">
        <ele>29</ele>
        <time>2021-09-18T10:13:19Z</time>
      </trkpt>
      <trkpt lat="43.43292" lon="6.7352">
        <ele>26</ele>
        <time>2021-09-18T10:13:26Z</time>
      </trkpt>
      <trkpt lat="43.43264" lon="6.7351">
        <ele>23</ele>
        <time>2021-09-18T10:13:33Z</time>
      </trkpt>
      <trkpt lat="43.4325" lon="6.73514">
        <ele>22</ele>
        <time>2021-09-18T10:13:36Z</time>
      </trkpt>
      <trkpt lat="43.43231" lon="6.73534">
        <ele>21</ele>
        <time>2021-09-18T10:13:42Z</time>
      </trkpt>
      <trkpt lat="43.43226" lon="6.73559">
        <ele>21</ele>
        <time>2021-09-18T10:13:46Z</time>
      </trkpt>
      <trkpt lat="43.43216" lon="6.7365">
        <ele>19</ele>
        <time>2021-09-18T10:14:02Z</time>
      </trkpt>
      <trkpt lat="43.43219" lon="6.73706">
        <ele>18</ele>
        <time>2021-09-18T10:14:11Z</time>
      </trkpt>
      <trkpt lat="43.43205" lon="6.7376">
        <ele>14</ele>
        <time>2021-09-18T10:14:21Z</time>
      </trkpt>
      <trkpt lat="43.43277" lon="6.73911">
        <ele>10</ele>
        <time>2021-09-18T10:14:52Z</time>
      </trkpt>
      <trkpt lat="43.43293" lon="6.73981">
        <ele>8</ele>
        <time>2021-09-18T10:15:04Z</time>
      </trkpt>
      <trkpt lat="43.4332" lon="6.74046">
        <ele>8</ele>
        <time>2021-09-18T10:15:17Z</time>
      </trkpt>
      <trkpt lat="43.43328" lon="6.7408">
        <ele>8</ele>
        <time>2021-09-18T10:15:23Z</time>
      </trkpt>
      <trkpt lat="43.43311" lon="6.74132">
        <ele>6</ele>
        <time>2021-09-18T10:15:32Z</time>
      </trkpt>
      <trkpt lat="43.43266" lon="6.74229">
        <ele>4</ele>
        <time>2021-09-18T10:15:52Z</time>
      </trkpt>
      <trkpt lat="43.4325" lon="6.7427">
        <ele>4</ele>
        <time>2021-09-18T10:16:00Z</time>
      </trkpt>
      <trkpt lat="43.43229" lon="6.74387">
        <ele>3</ele>
        <time>2021-09-18T10:16:20Z</time>
      </trkpt>
      <trkpt lat="43.43174" lon="6.74501">
        <ele>4</ele>
        <time>2021-09-18T10:16:43Z</time>
      </trkpt>
      <trkpt lat="43.43143" lon="6.74554">
        <ele>4</ele>
        <time>2021-09-18T10:16:55Z</time>
      </trkpt>
      <trkpt lat="43.43138" lon="6.74575">
        <ele>4</ele>
        <time>2021-09-18T10:16:59Z</time>
      </trkpt>
      <trkpt lat="43.43153" lon="6.74592">
        <ele>4</ele>
        <time>2021-09-18T10:17:03Z</time>
      </trkpt>
      <trkpt lat="43.43089" lon="6.7492">
        <ele>3</ele>
        <time>2021-09-18T10:18:01Z</time>
      </trkpt>
      <trkpt lat="43.43071" lon="6.74935">
        <ele>3</ele>
        <time>2021-09-18T10:18:06Z</time>
      </trkpt>
      <trkpt lat="43.42929" lon="6.74916">
        <ele>4</ele>
        <time>2021-09-18T10:18:39Z</time>
      </trkpt>
      <trkpt lat="43.42781" lon="6.74904">
        <ele>5</ele>
        <time>2021-09-18T10:19:14Z</time>
      </trkpt>
      <trkpt lat="43.42735" lon="6.74876">
        <ele>5</ele>
        <time>2021-09-18T10:19:25Z</time>
      </trkpt>
      <trkpt lat="43.42723" lon="6.74893">
        <ele>5</ele>
        <time>2021-09-18T10:19:29Z</time>
      </trkpt>
      <trkpt lat="43.42724" lon="6.74921">
        <ele>4</ele>
        <time>2021-09-18T10:19:34Z</time>
      </trkpt>
      <trkpt lat="43.42713" lon="6.74936">
        <ele>4</ele>
        <time>2021-09-18T10:19:38Z</time>
      </trkpt>
      <trkpt lat="43.42701" lon="6.75116">
        <ele>5</ele>
        <time>2021-09-18T10:20:09Z</time>
      </trkpt>
      <trkpt lat="43.42657" lon="6.7556">
        <ele>6</ele>
        <time>2021-09-18T10:21:25Z</time>
      </trkpt>
      <trkpt lat="43.42644" lon="6.75588">
        <ele>6</ele>
        <time>2021-09-18T10:21:30Z</time>
      </trkpt>
      <trkpt lat="43.42612" lon="6.75601">
        <ele>6</ele>
        <time>2021-09-18T10:21:38Z</time>
      </trkpt>
      <trkpt lat="43.42388" lon="6.75631">
        <ele>4</ele>
        <time>2021-09-18T10:22:31Z</time>
      </trkpt>
      <trkpt lat="43.42373" lon="6.75616">
        <ele>4</ele>
        <time>2021-09-18T10:22:35Z</time>
      </trkpt>
      <trkpt lat="43.42347" lon="6.75535">
        <ele>5</ele>
        <time>2021-09-18T10:22:50Z</time>
      </trkpt>
      <trkpt lat="43.42275" lon="6.75372">
        <ele>7</ele>
        <time>2021-09-18T10:23:22Z</time>
      </trkpt>
      <trkpt lat="43.42273" lon="6.75353">
        <ele>7</ele>
        <time>2021-09-18T10:23:25Z</time>
      </trkpt>
      <trkpt lat="43.42327" lon="6.75307">
        <ele>8</ele>
        <time>2021-09-18T10:23:40Z</time>
      </trkpt>
      <trkpt lat="43.42333" lon="6.75315">
        <ele>9</ele>
        <time>2021-09-18T10:23:42Z</time>
      </trkpt>
      <trkpt lat="43.4234" lon="6.7531">
        <ele>8</ele>
        <time>2021-09-18T10:23:44Z</time>
      </trkpt>
      <trkpt lat="43.42341" lon="6.75297">
        <ele>8</ele>
        <time>2021-09-18T10:23:46Z</time>
      </trkpt>
      <trkpt lat="43.42335" lon="6.75291">
        <ele>7</ele>
        <time>2021-09-18T10:23:48Z</time>
      </trkpt>
      <trkpt lat="43.42329" lon="6.75293">
        <ele>8</ele>
        <time>2021-09-18T10:23:49Z</time>
      </trkpt>
      <trkpt lat="43.42237" lon="6.75084">
        <ele>8</ele>
        <time>2021-09-18T10:24:31Z</time>
      </trkpt>
      <trkpt lat="43.42242" lon="6.75044">
        <ele>8</ele>
        <time>2021-09-18T10:24:38Z</time>
      </trkpt>
      <trkpt lat="43.42281" lon="6.75005">
        <ele>9</ele>
        <time>2021-09-18T10:24:49Z</time>
      </trkpt>
      <trkpt lat="43.42354" lon="6.74939">
        <ele>9</ele>
        <time>2021-09-18T10:25:09Z</time>
      </trkpt>
      <trkpt lat="43.42408" lon="6.74778">
        <ele>6</ele>
        <time>2021-09-18T10:25:40Z</time>
      </trkpt>
      <trkpt lat="43.42424" lon="6.74764">
        <ele>6</ele>
        <time>2021-09-18T10:25:44Z</time>
      </trkpt>
      <trkpt lat="43.4243" lon="6.74751">
        <ele>6</ele>
        <time>2021-09-18T10:25:47Z</time>
      </trkpt>
      <trkpt lat="43.4243" lon="6.74728">
        <ele>5</ele>
        <time>2021-09-18T10:25:50Z</time>
      </trkpt>
      <trkpt lat="43.42419" lon="6.74718">
        <ele>6</ele>
        <time>2021-09-18T10:25:54Z</time>
      </trkpt>
      <trkpt lat="43.42401" lon="6.74717">
        <ele>6</ele>
        <time>2021-09-18T10:25:58Z</time>
      </trkpt>
      <trkpt lat="43.42324" lon="6.74565">
        <ele>5</ele>
        <time>2021-09-18T10:26:29Z</time>
      </trkpt>
      <trkpt lat="43.4231" lon="6.74523">
        <ele>4</ele>
        <time>2021-09-18T10:26:37Z</time>
      </trkpt>
      <trkpt lat="43.42315" lon="6.74495">
        <ele>4</ele>
        <time>2021-09-18T10:26:42Z</time>
      </trkpt>
      <trkpt lat="43.42341" lon="6.7447">
        <ele>4</ele>
        <time>2021-09-18T10:26:49Z</time>
      </trkpt>
      <trkpt lat="43.42368" lon="6.74432">
        <ele>3</ele>
        <time>2021-09-18T10:26:58Z</time>
      </trkpt>
      <trkpt lat="43.42405" lon="6.74352">
        <ele>3</ele>
        <time>2021-09-18T10:27:14Z</time>
      </trkpt>
      <trkpt lat="43.42431" lon="6.74288">
        <ele>3</ele>
        <time>2021-09-18T10:27:27Z</time>
      </trkpt>
      <trkpt lat="43.42418" lon="6.74269">
        <ele>3</ele>
        <time>2021-09-18T10:27:31Z</time>
      </trkpt>
      <trkpt lat="43.42386" lon="6.74212">
        <ele>3</ele>
        <time>2021-09-18T10:27:44Z</time>
      </trkpt>
      <trkpt lat="43.42406" lon="6.74189">
        <ele>3</ele>
        <time>2021-09-18T10:27:50Z</time>
      </trkpt>
      <trkpt lat="43.42349" lon="6.74109">
        <ele>3</ele>
        <time>2021-09-18T10:28:09Z</time>
      </trkpt>
      <trkpt lat="43.42414" lon="6.74029">
        <ele>3</ele>
        <time>2021-09-18T10:28:29Z</time>
      </trkpt>
      <trkpt lat="43.42416" lon="6.74001">
        <ele>3</ele>
        <time>2021-09-18T10:28:34Z</time>
      </trkpt>
      <trkpt lat="43.42349" lon="6.73888">
        <ele>2</ele>
        <time>2021-09-18T10:28:59Z</time>
      </trkpt>
      <trkpt lat="43.42411" lon="6.73795">
        <ele>2</ele>
        <time>2021-09-18T10:29:20Z</time>
      </trkpt>
      <trkpt lat="43.42397" lon="6.73783">
        <ele>2</ele>
        <time>2021-09-18T10:29:24Z</time>
      </trkpt>
      <trkpt lat="43.42433" lon="6.73739">
        <ele>1</ele>
        <time>2021-09-18T10:29:35Z</time>
      </trkpt>
      <trkpt lat="43.42437" lon="6.73718">
        <ele>1</ele>
        <time>2021-09-18T10:29:39Z</time>
      </trkpt>
      <trkpt lat="43.4243" lon="6.73696">
        <ele>1</ele>
        <time>2021-09-18T10:29:43Z</time>
      </trkpt>
      <trkpt lat="43.42428" lon="6.73663">
        <ele>2</ele>
        <time>2021-09-18T10:29:48Z</time>
      </trkpt>
      <trkpt lat="43.42443" lon="6.73657">
        <ele>1</ele>
        <time>2021-09-18T10:29:52Z</time>
      </trkpt>
      <trkpt lat="43.42463" lon="6.73661">
        <ele>1</ele>
        <time>2021-09-18T10:29:57Z</time>
      </trkpt>
      <trkpt lat="43.42461" lon="6.73622">
        <ele>2</ele>
        <time>2021-09-18T10:30:03Z</time>
      </trkpt>
      <trkpt lat="43.42449" lon="6.73565">
        <ele>2</ele>
        <time>2021-09-18T10:30:13Z</time>
      </trkpt>
      <trkpt lat="43.42438" lon="6.73556">
        <ele>3</ele>
        <time>2021-09-18T10:30:16Z</time>
      </trkpt>
      <trkpt lat="43.42418" lon="6.73528">
        <ele>4</ele>
        <time>2021-09-18T10:30:23Z</time>
      </trkpt>
      <trkpt lat="43.42337" lon="6.73386">
        <ele>2</ele>
        <time>2021-09-18T10:30:54Z</time>
      </trkpt>
      <trkpt lat="43.42156" lon="6.73094">
        <ele>1</ele>
        <time>2021-09-18T10:31:59Z</time>
      </trkpt>
      <trkpt lat="43.42131" lon="6.73063">
        <ele>1</ele>
        <time>2021-09-18T10:32:07Z</time>
      </trkpt>
      <trkpt lat="43.42098" lon="6.73035">
        <ele>1</ele>
        <time>2021-09-18T10:32:16Z</time>
      </trkpt>
      <trkpt lat="43.41972" lon="6.72967">
        <ele>3</ele>
        <time>2021-09-18T10:32:47Z</time>
      </trkpt>
      <trkpt lat="43.41965" lon="6.72943">
        <ele>3</ele>
        <time>2021-09-18T10:32:52Z</time>
      </trkpt>
      <trkpt lat="43.41978" lon="6.72903">
        <ele>3</ele>
        <time>2021-09-18T10:32:59Z</time>
      </trkpt>
      <trkpt lat="43.41979" lon="6.72878">
        <ele>3</ele>
        <time>2021-09-18T10:33:03Z</time>
      </trkpt>
      <trkpt lat="43.41971" lon="6.7285">
        <ele>3</ele>
        <time>2021-09-18T10:33:09Z</time>
      </trkpt>
      <trkpt lat="43.4196" lon="6.72841">
        <ele>3</ele>
        <time>2021-09-18T10:33:12Z</time>
      </trkpt>
      <trkpt lat="43.41945" lon="6.72836">
        <ele>3</ele>
        <time>2021-09-18T10:33:15Z</time>
      </trkpt>
      <trkpt lat="43.4193" lon="6.72862">
        <ele>3</ele>
        <time>2021-09-18T10:33:21Z</time>
      </trkpt>
      <trkpt lat="43.41912" lon="6.72875">
        <ele>4</ele>
        <time>2021-09-18T10:33:25Z</time>
      </trkpt>
      <trkpt lat="43.41893" lon="6.72879">
        <ele>4</ele>
        <time>2021-09-18T10:33:30Z</time>
      </trkpt>
      <trkpt lat="43.41844" lon="6.72873">
        <ele>4</ele>
        <time>2021-09-18T10:33:41Z</time>
      </trkpt>
      <trkpt lat="43.41727" lon="6.72807">
        <ele>4</ele>
        <time>2021-09-18T10:34:11Z</time>
      </trkpt>
      <trkpt lat="43.41619" lon="6.72751">
        <ele>4</ele>
        <time>2021-09-18T10:34:38Z</time>
      </trkpt>
      <trkpt lat="43.41599" lon="6.72773">
        <ele>4</ele>
        <time>2021-09-18T10:34:44Z</time>
      </trkpt>
      <trkpt lat="43.41597" lon="6.72761">
        <ele>4</ele>
        <time>2021-09-18T10:34:46Z</time>
      </trkpt>
      <trkpt lat="43.41575" lon="6.72745">
        <ele>4</ele>
        <time>2021-09-18T10:34:52Z</time>
      </trkpt>
      <trkpt lat="43.41567" lon="6.72746">
        <ele>4</ele>
        <time>2021-09-18T10:34:54Z</time>
      </trkpt>
      <trkpt lat="43.41529" lon="6.7279">
        <ele>5</ele>
        <time>2021-09-18T10:35:05Z</time>
      </trkpt>
      <trkpt lat="43.41528" lon="6.72799">
        <ele>5</ele>
        <time>2021-09-18T10:35:07Z</time>
      </trkpt>
      <trkpt lat="43.4153" lon="6.72803">
        <ele>6</ele>
        <time>2021-09-18T10:35:08Z</time>
      </trkpt>
      <trkpt lat="43.41542" lon="6.72799">
        <ele>5</ele>
        <time>2021-09-18T10:35:11Z</time>
      </trkpt>
      <trkpt lat="43.41563" lon="6.72798">
        <ele>5</ele>
        <time>2021-09-18T10:35:15Z</time>
      </trkpt>
      <trkpt lat="43.41583" lon="6.72783">
        <ele>5</ele>
        <time>2021-09-18T10:35:21Z</time>
      </trkpt>
      <trkpt lat="43.41564" lon="6.72799">
        <ele>5</ele>
        <time>2021-09-18T10:35:26Z</time>
      </trkpt>
      <trkpt lat="43.41545" lon="6.728">
        <ele>5</ele>
        <time>2021-09-18T10:35:30Z</time>
      </trkpt>
      <trkpt lat="43.41529" lon="6.72804">
        <ele>6</ele>
        <time>2021-09-18T10:35:34Z</time>
      </trkpt>
      <trkpt lat="43.41529" lon="6.72788">
        <ele>5</ele>
        <time>2021-09-18T10:35:37Z</time>
      </trkpt>
      <trkpt lat="43.41566" lon="6.72746">
        <ele>4</ele>
        <time>2021-09-18T10:35:48Z</time>
      </trkpt>
      <trkpt lat="43.41573" lon="6.72743">
        <ele>4</ele>
        <time>2021-09-18T10:35:50Z</time>
      </trkpt>
      <trkpt lat="43.41561" lon="6.72739">
        <ele>4</ele>
        <time>2021-09-18T10:35:53Z</time>
      </trkpt>
      <trkpt lat="43.41554" lon="6.72727">
        <ele>4</ele>
        <time>2021-09-18T10:35:55Z</time>
      </trkpt>
      <trkpt lat="43.41561" lon="6.72719">
        <ele>4</ele>
        <time>2021-09-18T10:35:57Z</time>
      </trkpt>
      <trkpt lat="43.41361" lon="6.72611">
        <ele>5</ele>
        <time>2021-09-18T10:36:48Z</time>
      </trkpt>
      <trkpt lat="43.41358" lon="6.72585">
        <ele>4</ele>
        <time>2021-09-18T10:36:52Z</time>
      </trkpt>
      <trkpt lat="43.41308" lon="6.72561">
        <ele>5</ele>
        <time>2021-09-18T10:37:04Z</time>
      </trkpt>
      <trkpt lat="43.41296" lon="6.72547">
        <ele>5</ele>
        <time>2021-09-18T10:37:08Z</time>
      </trkpt>
      <trkpt lat="43.41278" lon="6.72545">
        <ele>5</ele>
        <time>2021-09-18T10:37:12Z</time>
      </trkpt>
      <trkpt lat="43.41204" lon="6.72508">
        <ele>5</ele>
        <time>2021-09-18T10:37:31Z</time>
      </trkpt>
      <trkpt lat="43.41187" lon="6.72507">
        <ele>4</ele>
        <time>2021-09-18T10:37:35Z</time>
      </trkpt>
      <trkpt lat="43.41169" lon="6.72517">
        <ele>5</ele>
        <time>2021-09-18T10:37:39Z</time>
      </trkpt>
      <trkpt lat="43.4107" lon="6.72455">
        <ele>3</ele>
        <time>2021-09-18T10:38:05Z</time>
      </trkpt>
      <trkpt lat="43.4107" lon="6.72448">
        <ele>3</ele>
        <time>2021-09-18T10:38:06Z</time>
      </trkpt>
      <trkpt lat="43.41055" lon="6.72428">
        <ele>3</ele>
        <time>2021-09-18T10:38:11Z</time>
      </trkpt>
      <trkpt lat="43.41045" lon="6.72421">
        <ele>3</ele>
        <time>2021-09-18T10:38:13Z</time>
      </trkpt>
      <trkpt lat="43.41" lon="6.72413">
        <ele>3</ele>
        <time>2021-09-18T10:38:24Z</time>
      </trkpt>
      <trkpt lat="43.40962" lon="6.72411">
        <ele>3</ele>
        <time>2021-09-18T10:38:33Z</time>
      </trkpt>
      <trkpt lat="43.40931" lon="6.72422">
        <ele>3</ele>
        <time>2021-09-18T10:38:40Z</time>
      </trkpt>
      <trkpt lat="43.40906" lon="6.72422">
        <ele>3</ele>
        <time>2021-09-18T10:38:46Z</time>
      </trkpt>
      <trkpt lat="43.409" lon="6.7244">
        <ele>3</ele>
        <time>2021-09-18T10:38:49Z</time>
      </trkpt>
      <trkpt lat="43.40885" lon="6.72455">
        <ele>2</ele>
        <time>2021-09-18T10:38:54Z</time>
      </trkpt>
      <trkpt lat="43.40851" lon="6.72481">
        <ele>2</ele>
        <time>2021-09-18T10:39:03Z</time>
      </trkpt>
      <trkpt lat="43.40786" lon="6.72548">
        <ele>2</ele>
        <time>2021-09-18T10:39:22Z</time>
      </trkpt>
      <trkpt lat="43.40785" lon="6.72559">
        <ele>2</ele>
        <time>2021-09-18T10:39:24Z</time>
      </trkpt>
      <trkpt lat="43.40769" lon="6.72577">
        <ele>2</ele>
        <time>2021-09-18T10:39:29Z</time>
      </trkpt>
      <trkpt lat="43.40772" lon="6.72586">
        <ele>2</ele>
        <time>2021-09-18T10:39:30Z</time>
      </trkpt>
      <trkpt lat="43.40774" lon="6.72723">
        <ele>1</ele>
        <time>2021-09-18T10:39:53Z</time>
      </trkpt>
      <trkpt lat="43.40837" lon="6.72972">
        <ele>1</ele>
        <time>2021-09-18T10:40:38Z</time>
      </trkpt>
      <trkpt lat="43.40837" lon="6.72988">
        <ele>2</ele>
        <time>2021-09-18T10:40:41Z</time>
      </trkpt>
      <trkpt lat="43.40847" lon="6.72997">
        <ele>2</ele>
        <time>2021-09-18T10:40:44Z</time>
      </trkpt>
      <trkpt lat="43.40864" lon="6.73053">
        <ele>2</ele>
        <time>2021-09-18T10:40:54Z</time>
      </trkpt>
      <trkpt lat="43.40888" lon="6.7312">
        <ele>2</ele>
        <time>2021-09-18T10:41:07Z</time>
      </trkpt>
      <trkpt lat="43.40892" lon="6.73138">
        <ele>2</ele>
        <time>2021-09-18T10:41:10Z</time>
      </trkpt>
      <trkpt lat="43.40871" lon="6.73147">
        <ele>2</ele>
        <time>2021-09-18T10:41:15Z</time>
      </trkpt>
      <trkpt lat="43.4086" lon="6.73147">
        <ele>2</ele>
        <time>2021-09-18T10:41:18Z</time>
      </trkpt>
      <trkpt lat="43.4084" lon="6.7314">
        <ele>2</ele>
        <time>2021-09-18T10:41:22Z</time>
      </trkpt>
      <trkpt lat="43.40824" lon="6.7314">
        <ele>1</ele>
        <time>2021-09-18T10:41:26Z</time>
      </trkpt>
      <trkpt lat="43.40791" lon="6.7315">
        <ele>1</ele>
        <time>2021-09-18T10:41:34Z</time>
      </trkpt>
      <trkpt lat="43.40775" lon="6.7315">
        <ele>1</ele>
        <time>2021-09-18T10:41:38Z</time>
      </trkpt>
      <trkpt lat="43.40763" lon="6.73145">
        <ele>1</ele>
        <time>2021-09-18T10:41:41Z</time>
      </trkpt>
      <trkpt lat="43.40749" lon="6.73148">
        <ele>1</ele>
        <time>2021-09-18T10:41:44Z</time>
      </trkpt>
      <trkpt lat="43.40683" lon="6.73119">
        <ele>1</ele>
        <time>2021-09-18T10:42:00Z</time>
      </trkpt>
      <trkpt lat="43.40621" lon="6.73095">
        <ele>1</ele>
        <time>2021-09-18T10:42:15Z</time>
      </trkpt>
      <trkpt lat="43.40602" lon="6.73112">
        <ele>1</ele>
        <time>2021-09-18T10:42:21Z</time>
      </trkpt>
      <trkpt lat="43.40593" lon="6.73115">
        <ele>1</ele>
        <time>2021-09-18T10:42:23Z</time>
      </trkpt>
      <trkpt lat="43.40573" lon="6.73133">
        <ele>1</ele>
        <time>2021-09-18T10:42:28Z</time>
      </trkpt>
      <trkpt lat="43.4056" lon="6.73131">
        <ele>1</ele>
        <time>2021-09-18T10:42:31Z</time>
      </trkpt>
      <trkpt lat="43.40551" lon="6.73135">
        <ele>1</ele>
        <time>2021-09-18T10:42:34Z</time>
      </trkpt>
      <trkpt lat="43.40541" lon="6.73143">
        <ele>1</ele>
        <time>2021-09-18T10:42:36Z</time>
      </trkpt>
      <trkpt lat="43.40494" lon="6.73161">
        <ele>1</ele>
        <time>2021-09-18T10:42:48Z</time>
      </trkpt>
      <trkpt lat="43.40489" lon="6.73171">
        <ele>1.1</ele>
        <time>2021-09-18T10:42:50Z</time>
      </trkpt>
      <trkpt lat="43.40473" lon="6.73155">
        <ele>1</ele>
        <time>2021-09-18T10:42:54Z</time>
      </trkpt>
      <trkpt lat="43.4046" lon="6.7315">
        <ele>1.4</ele>
        <time>2021-09-18T10:42:57Z</time>
      </trkpt>
      <trkpt lat="43.40454" lon="6.73149">
        <ele>1.7</ele>
        <time>2021-09-18T10:42:59Z</time>
      </trkpt>
      <trkpt lat="43.40439" lon="6.73152">
        <ele>2</ele>
        <time>2021-09-18T10:43:02Z</time>
      </trkpt>
      <trkpt lat="43.4042" lon="6.73149">
        <ele>2</ele>
        <time>2021-09-18T10:43:07Z</time>
      </trkpt>
      <trkpt lat="43.40409" lon="6.73136">
        <ele>2</ele>
        <time>2021-09-18T10:43:10Z</time>
      </trkpt>
      <trkpt lat="43.40404" lon="6.73123">
        <ele>2</ele>
        <time>2021-09-18T10:43:13Z</time>
      </trkpt>
      <trkpt lat="43.40393" lon="6.73076">
        <ele>1</ele>
        <time>2021-09-18T10:43:21Z</time>
      </trkpt>
      <trkpt lat="43.40372" lon="6.73071">
        <ele>1</ele>
        <time>2021-09-18T10:43:26Z</time>
      </trkpt>
      <trkpt lat="43.40362" lon="6.73073">
        <ele>1</ele>
        <time>2021-09-18T10:43:28Z</time>
      </trkpt>
      <trkpt lat="43.40347" lon="6.73062">
        <ele>1</ele>
        <time>2021-09-18T10:43:32Z</time>
      </trkpt>
      <trkpt lat="43.40319" lon="6.7306">
        <ele>1</ele>
        <time>2021-09-18T10:43:39Z</time>
      </trkpt>
      <trkpt lat="43.40291" lon="6.73044">
        <ele>1</ele>
        <time>2021-09-18T10:43:46Z</time>
      </trkpt>
      <trkpt lat="43.40272" lon="6.73024">
        <ele>1</ele>
        <time>2021-09-18T10:43:52Z</time>
      </trkpt>
      <trkpt lat="43.40177" lon="6.73019">
        <ele>3</ele>
        <time>2021-09-18T10:44:14Z</time>
      </trkpt>
      <trkpt lat="43.39914" lon="6.72997">
        <ele>1</ele>
        <time>2021-09-18T10:45:15Z</time>
      </trkpt>
      <trkpt lat="43.39904" lon="6.72999">
        <ele>1</ele>
        <time>2021-09-18T10:45:18Z</time>
      </trkpt>
      <trkpt lat="43.39872" lon="6.7299">
        <ele>1</ele>
        <time>2021-09-18T10:45:25Z</time>
      </trkpt>
      <trkpt lat="43.39684" lon="6.72917">
        <ele>3</ele>
        <time>2021-09-18T10:46:11Z</time>
      </trkpt>
      <trkpt lat="43.39717" lon="6.72932">
        <ele>2.9</ele>
        <time>2021-09-18T10:46:19Z</time>
      </trkpt>
      <trkpt lat="43.39903" lon="6.73001">
        <ele>1</ele>
        <time>2021-09-18T10:47:04Z</time>
      </trkpt>
      <trkpt lat="43.40271" lon="6.73026">
        <ele>1</ele>
        <time>2021-09-18T10:48:30Z</time>
      </trkpt>
      <trkpt lat="43.40291" lon="6.7304">
        <ele>1</ele>
        <time>2021-09-18T10:48:35Z</time>
      </trkpt>
      <trkpt lat="43.40286" lon="6.73002">
        <ele>2</ele>
        <time>2021-09-18T10:48:42Z</time>
      </trkpt>
      <trkpt lat="43.40332" lon="6.72984">
        <ele>2</ele>
        <time>2021-09-18T10:48:53Z</time>
      </trkpt>
      <trkpt lat="43.40326" lon="6.72964">
        <ele>2</ele>
        <time>2021-09-18T10:48:57Z</time>
      </trkpt>
      <trkpt lat="43.40274" lon="6.72985">
        <ele>2</ele>
        <time>2021-09-18T10:49:09Z</time>
      </trkpt>
      <trkpt lat="43.40275" lon="6.7298">
        <ele>2</ele>
        <time>2021-09-18T10:49:10Z</time>
      </trkpt>
      <trkpt lat="43.40253" lon="6.72986">
        <ele>2</ele>
        <time>2021-09-18T10:49:16Z</time>
      </trkpt>
      <trkpt lat="43.402" lon="6.72992">
        <ele>1</ele>
        <time>2021-09-18T10:49:28Z</time>
      </trkpt>
      <trkpt lat="43.39966" lon="6.72979">
        <ele>1</ele>
        <time>2021-09-18T10:50:23Z</time>
      </trkpt>
      <trkpt lat="43.39838" lon="6.72946">
        <ele>2</ele>
        <time>2021-09-18T10:50:53Z</time>
      </trkpt>
      <trkpt lat="43.39837" lon="6.72952">
        <ele>2</ele>
        <time>2021-09-18T10:50:54Z</time>
      </trkpt>
      <trkpt lat="43.39582" lon="6.72858">
        <ele>2.8</ele>
        <time>2021-09-18T10:51:56Z</time>
      </trkpt>
      <trkpt lat="43.39539" lon="6.72846">
        <ele>2.8</ele>
        <time>2021-09-18T10:52:06Z</time>
      </trkpt>
      <trkpt lat="43.39486" lon="6.72841">
        <ele>3.4</ele>
        <time>2021-09-18T10:52:18Z</time>
      </trkpt>
      <trkpt lat="43.39491" lon="6.7285">
        <ele>3</ele>
        <time>2021-09-18T10:52:20Z</time>
      </trkpt>
      <trkpt lat="43.39517" lon="6.72861">
        <ele>3</ele>
        <time>2021-09-18T10:52:27Z</time>
      </trkpt>
      <trkpt lat="43.3958" lon="6.72871">
        <ele>3</ele>
        <time>2021-09-18T10:52:41Z</time>
      </trkpt>
      <trkpt lat="43.39834" lon="6.7297">
        <ele>2</ele>
        <time>2021-09-18T10:53:43Z</time>
      </trkpt>
      <trkpt lat="43.39837" lon="6.72944">
        <ele>2</ele>
        <time>2021-09-18T10:53:48Z</time>
      </trkpt>
      <trkpt lat="43.39388" lon="6.72781">
        <ele>4</ele>
        <time>2021-09-18T10:55:36Z</time>
      </trkpt>
      <trkpt lat="43.3938" lon="6.72783">
        <ele>1</ele>
        <time>2021-09-18T10:55:38Z</time>
      </trkpt>
      <trkpt lat="43.39372" lon="6.72801">
        <ele>3.9</ele>
        <time>2021-09-18T10:55:42Z</time>
      </trkpt>
      <trkpt lat="43.39366" lon="6.72827">
        <ele>4</ele>
        <time>2021-09-18T10:55:46Z</time>
      </trkpt>
      <trkpt lat="43.39218" lon="6.72805">
        <ele>9</ele>
        <time>2021-09-18T10:56:21Z</time>
      </trkpt>
      <trkpt lat="43.3922" lon="6.72768">
        <ele>10</ele>
        <time>2021-09-18T10:56:27Z</time>
      </trkpt>
      <trkpt lat="43.39211" lon="6.72748">
        <ele>12</ele>
        <time>2021-09-18T10:56:31Z</time>
      </trkpt>
      <trkpt lat="43.39225" lon="6.72714">
        <ele>10</ele>
        <time>2021-09-18T10:56:38Z</time>
      </trkpt>
      <trkpt lat="43.39226" lon="6.72702">
        <ele>9</ele>
        <time>2021-09-18T10:56:40Z</time>
      </trkpt>
      <trkpt lat="43.38616" lon="6.72287">
        <ele>19</ele>
        <time>2021-09-18T10:59:19Z</time>
      </trkpt>
      <trkpt lat="43.3861" lon="6.72305">
        <ele>19</ele>
        <time>2021-09-18T10:59:22Z</time>
      </trkpt>
      <trkpt lat="43.38461" lon="6.72227">
        <ele>17</ele>
        <time>2021-09-18T10:59:59Z</time>
      </trkpt>
      <trkpt lat="43.38437" lon="6.72211">
        <ele>17</ele>
        <time>2021-09-18T11:00:06Z</time>
      </trkpt>
      <trkpt lat="43.38275" lon="6.72218">
        <ele>15</ele>
        <time>2021-09-18T11:00:43Z</time>
      </trkpt>
      <trkpt lat="43.38116" lon="6.72166">
        <ele>13</ele>
        <time>2021-09-18T11:01:22Z</time>
      </trkpt>
      <trkpt lat="43.38083" lon="6.72131">
        <ele>13</ele>
        <time>2021-09-18T11:01:31Z</time>
      </trkpt>
      <trkpt lat="43.38004" lon="6.71969">
        <ele>15</ele>
        <time>2021-09-18T11:02:04Z</time>
      </trkpt>
      <trkpt lat="43.37962" lon="6.71918">
        <ele>17</ele>
        <time>2021-09-18T11:02:18Z</time>
      </trkpt>
      <trkpt lat="43.37902" lon="6.71882">
        <ele>19</ele>
        <time>2021-09-18T11:02:33Z</time>
      </trkpt>
      <trkpt lat="43.37669" lon="6.71826">
        <ele>17</ele>
        <time>2021-09-18T11:03:28Z</time>
      </trkpt>
      <trkpt lat="43.37514" lon="6.71693">
        <ele>23</ele>
        <time>2021-09-18T11:04:11Z</time>
      </trkpt>
      <trkpt lat="43.37447" lon="6.7164">
        <ele>25</ele>
        <time>2021-09-18T11:04:29Z</time>
      </trkpt>
      <trkpt lat="43.37398" lon="6.71568">
        <ele>28</ele>
        <time>2021-09-18T11:04:46Z</time>
      </trkpt>
      <trkpt lat="43.37375" lon="6.71345">
        <ele>20</ele>
        <time>2021-09-18T11:05:24Z</time>
      </trkpt>
      <trkpt lat="43.37364" lon="6.71302">
        <ele>19</ele>
        <time>2021-09-18T11:05:32Z</time>
      </trkpt>
      <trkpt lat="43.37317" lon="6.71237">
        <ele>19</ele>
        <time>2021-09-18T11:05:47Z</time>
      </trkpt>
      <trkpt lat="43.37275" lon="6.71216">
        <ele>21</ele>
        <time>2021-09-18T11:05:58Z</time>
      </trkpt>
      <trkpt lat="43.37232" lon="6.71208">
        <ele>22</ele>
        <time>2021-09-18T11:06:08Z</time>
      </trkpt>
      <trkpt lat="43.3716" lon="6.71246">
        <ele>19</ele>
        <time>2021-09-18T11:06:26Z</time>
      </trkpt>
      <trkpt lat="43.37052" lon="6.71316">
        <ele>14</ele>
        <time>2021-09-18T11:06:54Z</time>
      </trkpt>
      <trkpt lat="43.37023" lon="6.71323">
        <ele>14</ele>
        <time>2021-09-18T11:07:00Z</time>
      </trkpt>
      <trkpt lat="43.37014" lon="6.71341">
        <ele>13</ele>
        <time>2021-09-18T11:07:04Z</time>
      </trkpt>
      <trkpt lat="43.36964" lon="6.71368">
        <ele>13</ele>
        <time>2021-09-18T11:07:17Z</time>
      </trkpt>
      <trkpt lat="43.36929" lon="6.71373">
        <ele>15</ele>
        <time>2021-09-18T11:07:25Z</time>
      </trkpt>
      <trkpt lat="43.36908" lon="6.71373">
        <ele>15</ele>
        <time>2021-09-18T11:07:30Z</time>
      </trkpt>
      <trkpt lat="43.36879" lon="6.71356">
        <ele>15</ele>
        <time>2021-09-18T11:07:37Z</time>
      </trkpt>
      <trkpt lat="43.36857" lon="6.71335">
        <ele>15</ele>
        <time>2021-09-18T11:07:43Z</time>
      </trkpt>
      <trkpt lat="43.36833" lon="6.713">
        <ele>14</ele>
        <time>2021-09-18T11:07:52Z</time>
      </trkpt>
      <trkpt lat="43.36798" lon="6.71235">
        <ele>12</ele>
        <time>2021-09-18T11:08:05Z</time>
      </trkpt>
      <trkpt lat="43.36773" lon="6.71215">
        <ele>9</ele>
        <time>2021-09-18T11:08:12Z</time>
      </trkpt>
      <trkpt lat="43.3674" lon="6.71201">
        <ele>6</ele>
        <time>2021-09-18T11:08:20Z</time>
      </trkpt>
      <trkpt lat="43.36722" lon="6.71195">
        <ele>6</ele>
        <time>2021-09-18T11:08:24Z</time>
      </trkpt>
      <trkpt lat="43.367" lon="6.71195">
        <ele>5</ele>
        <time>2021-09-18T11:08:30Z</time>
      </trkpt>
      <trkpt lat="43.36676" lon="6.71202">
        <ele>4</ele>
        <time>2021-09-18T11:08:35Z</time>
      </trkpt>
      <trkpt lat="43.36654" lon="6.71217">
        <ele>5</ele>
        <time>2021-09-18T11:08:41Z</time>
      </trkpt>
      <trkpt lat="43.36631" lon="6.71224">
        <ele>6</ele>
        <time>2021-09-18T11:08:47Z</time>
      </trkpt>
      <trkpt lat="43.36556" lon="6.71267">
        <ele>11</ele>
        <time>2021-09-18T11:09:06Z</time>
      </trkpt>
      <trkpt lat="43.36547" lon="6.71267">
        <ele>12</ele>
        <time>2021-09-18T11:09:08Z</time>
      </trkpt>
      <trkpt lat="43.36537" lon="6.71279">
        <ele>12</ele>
        <time>2021-09-18T11:09:11Z</time>
      </trkpt>
      <trkpt lat="43.36365" lon="6.71358">
        <ele>15</ele>
        <time>2021-09-18T11:09:53Z</time>
      </trkpt>
      <trkpt lat="43.36297" lon="6.71397">
        <ele>16</ele>
        <time>2021-09-18T11:10:10Z</time>
      </trkpt>
      <trkpt lat="43.36186" lon="6.71476">
        <ele>20</ele>
        <time>2021-09-18T11:10:39Z</time>
      </trkpt>
      <trkpt lat="43.36126" lon="6.71512">
        <ele>22</ele>
        <time>2021-09-18T11:10:55Z</time>
      </trkpt>
      <trkpt lat="43.3607" lon="6.71519">
        <ele>24</ele>
        <time>2021-09-18T11:11:08Z</time>
      </trkpt>
      <trkpt lat="43.36013" lon="6.715">
        <ele>27</ele>
        <time>2021-09-18T11:11:22Z</time>
      </trkpt>
      <trkpt lat="43.35931" lon="6.71464">
        <ele>27</ele>
        <time>2021-09-18T11:11:42Z</time>
      </trkpt>
      <trkpt lat="43.35887" lon="6.71455">
        <ele>28</ele>
        <time>2021-09-18T11:11:52Z</time>
      </trkpt>
      <trkpt lat="43.35779" lon="6.71482">
        <ele>30</ele>
        <time>2021-09-18T11:12:18Z</time>
      </trkpt>
      <trkpt lat="43.35726" lon="6.71474">
        <ele>29</ele>
        <time>2021-09-18T11:12:30Z</time>
      </trkpt>
      <trkpt lat="43.35681" lon="6.71419">
        <ele>27</ele>
        <time>2021-09-18T11:12:44Z</time>
      </trkpt>
      <trkpt lat="43.3561" lon="6.71307">
        <ele>33</ele>
        <time>2021-09-18T11:13:09Z</time>
      </trkpt>
      <trkpt lat="43.35382" lon="6.7117">
        <ele>34</ele>
        <time>2021-09-18T11:14:08Z</time>
      </trkpt>
      <trkpt lat="43.35209" lon="6.71071">
        <ele>35</ele>
        <time>2021-09-18T11:14:51Z</time>
      </trkpt>
      <trkpt lat="43.35172" lon="6.71061">
        <ele>35</ele>
        <time>2021-09-18T11:15:00Z</time>
      </trkpt>
      <trkpt lat="43.35041" lon="6.71118">
        <ele>35</ele>
        <time>2021-09-18T11:15:32Z</time>
      </trkpt>
      <trkpt lat="43.34871" lon="6.71141">
        <ele>30</ele>
        <time>2021-09-18T11:16:12Z</time>
      </trkpt>
      <trkpt lat="43.34831" lon="6.71133">
        <ele>28</ele>
        <time>2021-09-18T11:16:22Z</time>
      </trkpt>
      <trkpt lat="43.34785" lon="6.71097">
        <ele>27</ele>
        <time>2021-09-18T11:16:34Z</time>
      </trkpt>
      <trkpt lat="43.34736" lon="6.71017">
        <ele>28</ele>
        <time>2021-09-18T11:16:52Z</time>
      </trkpt>
      <trkpt lat="43.34615" lon="6.70773">
        <ele>27</ele>
        <time>2021-09-18T11:17:42Z</time>
      </trkpt>
      <trkpt lat="43.3458" lon="6.70804">
        <ele>21</ele>
        <time>2021-09-18T11:17:52Z</time>
      </trkpt>
      <trkpt lat="43.34567" lon="6.70774">
        <ele>20</ele>
        <time>2021-09-18T11:17:57Z</time>
      </trkpt>
      <trkpt lat="43.3453" lon="6.70763">
        <ele>15</ele>
        <time>2021-09-18T11:18:06Z</time>
      </trkpt>
      <trkpt lat="43.34476" lon="6.70736">
        <ele>8</ele>
        <time>2021-09-18T11:18:20Z</time>
      </trkpt>
      <trkpt lat="43.34457" lon="6.70581">
        <ele>7</ele>
        <time>2021-09-18T11:18:46Z</time>
      </trkpt>
      <trkpt lat="43.34474" lon="6.70408">
        <ele>9</ele>
        <time>2021-09-18T11:19:16Z</time>
      </trkpt>
      <trkpt lat="43.34365" lon="6.69925">
        <ele>10</ele>
        <time>2021-09-18T11:20:42Z</time>
      </trkpt>
      <trkpt lat="43.34348" lon="6.69894">
        <ele>9</ele>
        <time>2021-09-18T11:20:49Z</time>
      </trkpt>
      <trkpt lat="43.34212" lon="6.69735">
        <ele>6</ele>
        <time>2021-09-18T11:21:30Z</time>
      </trkpt>
      <trkpt lat="43.34125" lon="6.69556">
        <ele>6</ele>
        <time>2021-09-18T11:22:07Z</time>
      </trkpt>
      <trkpt lat="43.34192" lon="6.69246">
        <ele>6</ele>
        <time>2021-09-18T11:23:02Z</time>
      </trkpt>
      <trkpt lat="43.34202" lon="6.69078">
        <ele>7</ele>
        <time>2021-09-18T11:23:30Z</time>
      </trkpt>
      <trkpt lat="43.34258" lon="6.68905">
        <ele>8</ele>
        <time>2021-09-18T11:24:03Z</time>
      </trkpt>
      <trkpt lat="43.34249" lon="6.68832">
        <ele>8</ele>
        <time>2021-09-18T11:24:15Z</time>
      </trkpt>
      <trkpt lat="43.34118" lon="6.68521">
        <ele>5</ele>
        <time>2021-09-18T11:25:16Z</time>
      </trkpt>
      <trkpt lat="43.3411" lon="6.68399">
        <ele>6</ele>
        <time>2021-09-18T11:25:37Z</time>
      </trkpt>
      <trkpt lat="43.34152" lon="6.68259">
        <ele>6</ele>
        <time>2021-09-18T11:26:03Z</time>
      </trkpt>
    </trkseg>
  </trk>
</gpx>